createdAt,value
2022-09-29T00:00:38.261Z,7.66
2022-09-29T00:03:08.911Z,7.60
2022-09-29T00:05:39.490Z,7.53
2022-09-29T00:08:09.955Z,7.47
2022-09-29T00:10:43.763Z,7.42
2022-09-29T00:13:15.412Z,7.37
2022-09-29T00:15:46.257Z,7.31
2022-09-29T00:18:16.908Z,7.26
2022-09-29T00:20:56.798Z,7.22
2022-09-29T00:23:28.754Z,7.17
2022-09-29T00:26:08.623Z,7.12
2022-09-29T00:28:41.576Z,7.07
2022-09-29T00:31:13.540Z,7.02
2022-09-29T00:33:44.046Z,6.97
2022-09-29T00:36:16.407Z,6.93
2022-09-29T00:38:48.528Z,6.89
2022-09-29T00:41:24.232Z,6.85
2022-09-29T00:43:58.065Z,6.82
2022-09-29T00:46:46.847Z,6.83
2022-09-29T00:49:24.872Z,6.80
2022-09-29T00:52:01.810Z,6.78
2022-09-29T00:54:38.325Z,6.75
2022-09-29T00:57:10.249Z,6.72
2022-09-29T00:59:49.888Z,6.69
2022-09-29T01:02:23.223Z,6.65
2022-09-29T01:04:55.063Z,6.61
2022-09-29T01:07:27.517Z,6.57
2022-09-29T01:09:59.196Z,6.53
2022-09-29T01:12:30.228Z,6.48
2022-09-29T01:15:02.007Z,6.45
2022-09-29T01:17:32.532Z,6.41
2022-09-29T01:20:13.248Z,6.37
2022-09-29T01:23:22.621Z,6.33
2022-09-29T01:26:10.581Z,6.27
2022-09-29T01:29:18.661Z,6.22
2022-09-29T01:31:58.666Z,6.17
2022-09-29T01:34:38.179Z,6.12
2022-09-29T01:37:22.380Z,6.07
2022-09-29T01:40:01.262Z,6.03
2022-09-29T01:42:37.796Z,5.99
2022-09-29T01:45:19.339Z,5.96
2022-09-29T01:47:51.200Z,5.91
2022-09-29T01:50:26.665Z,5.88
2022-09-29T01:53:01.668Z,5.84
2022-09-29T01:55:36.521Z,5.81
2022-09-29T01:58:10.515Z,5.78
2022-09-29T02:00:46.995Z,5.75
2022-09-29T02:03:22.056Z,5.73
2022-09-29T02:05:56.096Z,5.70
2022-09-29T02:08:32.687Z,5.69
2022-09-29T02:11:06.159Z,5.67
2022-09-29T02:13:41.995Z,5.67
2022-09-29T02:16:16.717Z,5.68
2022-09-29T02:18:57.593Z,5.69
2022-09-29T02:21:30.028Z,5.67
2022-09-29T02:23:59.124Z,5.64
2022-09-29T02:26:34.416Z,5.61
2022-09-29T02:29:07.223Z,5.58
2022-09-29T02:31:39.504Z,5.55
2022-09-29T02:34:14.107Z,5.51
2022-09-29T02:36:55.816Z,5.47
2022-09-29T02:39:40.764Z,5.44
2022-09-29T02:42:26.190Z,5.41
2022-09-29T02:45:10.632Z,5.36
2022-09-29T02:48:05.431Z,5.33
2022-09-29T02:50:49.490Z,5.30
2022-09-29T02:53:37.934Z,5.28
2022-09-29T02:56:14.537Z,5.27
2022-09-29T02:58:52.754Z,5.26
2022-09-29T03:01:23.135Z,5.25
2022-09-29T03:03:53.634Z,5.24
2022-09-29T03:06:24.428Z,5.24
2022-09-29T03:08:54.798Z,5.26
2022-09-29T03:11:25.338Z,5.28
2022-09-29T03:13:55.661Z,5.31
2022-09-29T03:16:26.122Z,5.32
2022-09-29T03:18:57.928Z,5.34
2022-09-29T03:21:28.406Z,5.36
2022-09-29T03:23:58.945Z,5.39
2022-09-29T03:26:30.187Z,5.40
2022-09-29T03:29:01.283Z,5.40
2022-09-29T03:31:31.645Z,5.39
2022-09-29T03:34:02.074Z,5.37
2022-09-29T03:36:32.666Z,5.36
2022-09-29T03:39:03.189Z,5.34
2022-09-29T03:41:33.579Z,5.33
2022-09-29T03:44:04.378Z,5.34
2022-09-29T03:46:35.002Z,5.34
2022-09-29T03:49:05.612Z,5.35
2022-09-29T03:51:36.104Z,5.37
2022-09-29T03:54:07.334Z,5.39
2022-09-29T03:56:38.760Z,5.39
2022-09-29T03:59:09.410Z,5.39
2022-09-29T04:01:39.762Z,5.41
2022-09-29T04:04:12.486Z,5.41
2022-09-29T04:06:43.230Z,5.39
2022-09-29T04:09:13.801Z,5.38
2022-09-29T04:11:44.231Z,5.38
2022-09-29T04:14:14.604Z,5.37
2022-09-29T04:16:44.983Z,5.36
2022-09-29T04:19:15.656Z,5.36
2022-09-29T04:21:46.342Z,5.36
2022-09-29T04:24:16.725Z,5.37
2022-09-29T04:26:47.039Z,5.36
2022-09-29T04:29:17.728Z,5.38
2022-09-29T04:31:48.429Z,5.38
2022-09-29T04:34:19.325Z,5.40
2022-09-29T04:36:49.769Z,5.40
2022-09-29T04:39:20.620Z,5.40
2022-09-29T04:41:51.424Z,5.43
2022-09-29T04:44:24.324Z,5.45
2022-09-29T04:46:54.869Z,5.46
2022-09-29T04:49:25.702Z,5.49
2022-09-29T04:51:56.259Z,5.51
2022-09-29T04:54:26.884Z,5.52
2022-09-29T04:56:57.482Z,5.53
2022-09-29T04:59:28.196Z,5.52
2022-09-29T05:01:58.595Z,5.50
2022-09-29T05:04:29.009Z,5.51
2022-09-29T05:06:59.349Z,5.52
2022-09-29T05:09:33.304Z,5.52
2022-09-29T05:12:04.604Z,5.52
2022-09-29T05:14:35.050Z,5.53
2022-09-29T05:17:05.610Z,5.52
2022-09-29T05:19:36.220Z,5.52
2022-09-29T05:22:06.987Z,5.51
2022-09-29T05:24:50.762Z,5.49
2022-09-29T05:30:55.607Z,5.45
2022-09-29T05:33:26.048Z,5.46
2022-09-29T05:35:57.774Z,5.43
2022-09-29T05:38:28.726Z,5.42
2022-09-29T05:40:59.276Z,5.43
2022-09-29T05:43:30.034Z,5.43
2022-09-29T05:46:03.938Z,5.44
2022-09-29T05:48:34.544Z,5.45
2022-09-29T05:51:10.991Z,5.44
2022-09-29T05:53:41.965Z,5.45
2022-09-29T05:56:14.465Z,5.46
2022-09-29T05:58:45.187Z,5.47
2022-09-29T06:01:17.994Z,5.49
2022-09-29T06:03:51.228Z,5.50
2022-09-29T06:06:23.783Z,5.51
2022-09-29T06:08:54.957Z,5.53
2022-09-29T06:11:28.082Z,5.54
2022-09-29T06:13:58.603Z,5.55
2022-09-29T06:16:32.316Z,5.57
2022-09-29T06:19:05.084Z,5.60
2022-09-29T06:21:37.728Z,5.61
2022-09-29T06:24:08.614Z,5.65
2022-09-29T06:26:39.124Z,5.69
2022-09-29T06:29:09.819Z,5.72
2022-09-29T06:31:40.593Z,5.76
2022-09-29T06:34:12.100Z,5.82
2022-09-29T06:37:02.776Z,5.86
2022-09-29T06:39:33.624Z,5.93
2022-09-29T06:42:04.072Z,6.00
2022-09-29T06:44:34.506Z,6.09
2022-09-29T06:47:05.225Z,6.20
2022-09-29T06:49:38.944Z,6.35
2022-09-29T06:52:19.909Z,6.50
2022-09-29T06:54:51.999Z,6.64
2022-09-29T06:57:22.244Z,6.75
2022-09-29T06:59:52.614Z,6.86
2022-09-29T07:02:23.055Z,6.93
2022-09-29T07:04:53.508Z,6.97
2022-09-29T07:07:23.944Z,7.00
2022-09-29T07:09:54.322Z,7.07
2022-09-29T07:12:25.011Z,7.16
2022-09-29T07:14:55.459Z,7.25
2022-09-29T07:17:25.890Z,7.35
2022-09-29T07:19:56.822Z,7.43
2022-09-29T07:22:27.164Z,7.51
2022-09-29T07:24:57.931Z,7.56
2022-09-29T07:27:28.537Z,7.59
2022-09-29T07:30:04.126Z,7.57
2022-09-29T07:32:34.977Z,7.55
2022-09-29T07:35:06.094Z,7.52
2022-09-29T07:37:36.567Z,7.53
2022-09-29T07:40:09.048Z,7.57
2022-09-29T07:42:39.562Z,7.65
2022-09-29T07:45:11.487Z,7.76
2022-09-29T07:47:42.095Z,7.85
2022-09-29T07:50:13.354Z,7.96
2022-09-29T07:52:43.856Z,8.08
2022-09-29T07:55:14.888Z,8.20
2022-09-29T07:57:48.101Z,8.32
2022-09-29T08:00:18.999Z,8.43
2022-09-29T08:02:49.652Z,8.51
2022-09-29T08:05:20.407Z,8.61
2022-09-29T08:07:54.943Z,8.76
2022-09-29T08:10:25.590Z,8.92
2022-09-29T08:12:56.255Z,9.10
2022-09-29T08:15:27.269Z,9.30
2022-09-29T08:17:58.392Z,9.48
2022-09-29T08:20:29.059Z,9.68
2022-09-29T08:23:00.702Z,9.96
2022-09-29T08:25:31.439Z,10.20
2022-09-29T08:28:02.387Z,10.44
2022-09-29T08:30:33.391Z,10.64
2022-09-29T08:33:04.281Z,10.69
2022-09-29T08:35:34.988Z,10.71
2022-09-29T08:38:05.458Z,10.79
2022-09-29T08:40:36.380Z,10.88
2022-09-29T08:43:24.127Z,11.00
2022-09-29T08:46:03.907Z,11.13
2022-09-29T08:48:52.596Z,11.22
2022-09-29T08:51:41.539Z,11.24
2022-09-29T08:54:35.881Z,11.24
2022-09-29T08:57:16.658Z,11.05
2022-09-29T08:59:52.783Z,11.05
2022-09-29T09:02:44.806Z,11.09
2022-09-29T09:05:35.482Z,11.11
2022-09-29T09:08:15.512Z,11.13
2022-09-29T09:10:49.573Z,11.10
2022-09-29T09:13:36.296Z,11.11
2022-09-29T09:16:25.529Z,11.16
2022-09-29T09:19:13.753Z,11.19
2022-09-29T09:21:49.090Z,11.19
2022-09-29T09:24:29.726Z,11.23
2022-09-29T09:27:01.570Z,11.24
2022-09-29T09:29:37.993Z,11.33
2022-09-29T09:32:13.600Z,11.42
2022-09-29T09:34:48.881Z,11.49
2022-09-29T09:37:23.579Z,11.59
2022-09-29T09:40:02.632Z,11.66
2022-09-29T09:42:38.115Z,11.73
2022-09-29T09:45:14.747Z,11.70
2022-09-29T09:47:51.533Z,11.73
2022-09-29T09:50:25.230Z,11.78
2022-09-29T09:53:01.180Z,11.84
2022-09-29T09:55:34.993Z,11.96
2022-09-29T09:58:28.619Z,12.15
2022-09-29T10:01:02.811Z,12.39
2022-09-29T10:03:34.163Z,12.65
2022-09-29T10:06:03.608Z,12.92
2022-09-29T10:08:39.680Z,13.16
2022-09-29T10:11:22.999Z,13.25
2022-09-29T10:14:01.596Z,13.20
2022-09-29T10:16:41.493Z,13.26
2022-09-29T10:19:12.578Z,13.42
2022-09-29T10:21:45.739Z,13.55
2022-09-29T10:24:28.703Z,13.58
2022-09-29T10:27:01.922Z,13.60
2022-09-29T10:29:40.586Z,13.67
2022-09-29T10:32:14.510Z,13.71
2022-09-29T10:34:47.813Z,13.79
2022-09-29T10:37:30.325Z,13.87
2022-09-29T10:40:15.119Z,14.01
2022-09-29T10:42:48.893Z,14.14
2022-09-29T10:45:21.765Z,14.20
2022-09-29T10:48:10.833Z,14.25
2022-09-29T10:50:52.184Z,14.27
2022-09-29T10:53:24.304Z,14.15
2022-09-29T10:55:57.171Z,14.12
2022-09-29T11:01:29.209Z,14.02
2022-09-29T11:04:03.535Z,13.99
2022-09-29T11:06:37.049Z,14.02
2022-09-29T11:09:27.924Z,13.97
2022-09-29T11:12:05.072Z,14.03
2022-09-29T11:14:44.470Z,14.15
2022-09-29T11:17:26.668Z,14.13
2022-09-29T11:19:59.693Z,14.21
2022-09-29T11:22:55.656Z,14.39
2022-09-29T11:25:54.570Z,14.67
2022-09-29T11:28:41.042Z,15.04
2022-09-29T11:31:30.449Z,15.46
2022-09-29T11:34:26.782Z,15.85
2022-09-29T11:37:07.492Z,16.06
2022-09-29T11:39:48.009Z,16.25
2022-09-29T11:42:38.605Z,16.35
2022-09-29T11:48:20.857Z,16.24
2022-09-29T11:51:01.433Z,15.92
2022-09-29T11:54:07.307Z,15.73
2022-09-29T11:56:46.565Z,15.80
2022-09-29T11:59:36.954Z,16.02
2022-09-29T12:02:52.935Z,16.14
2022-09-29T12:05:32.199Z,16.09
2022-09-29T12:08:17.588Z,16.09
2022-09-29T12:10:59.316Z,16.06
2022-09-29T12:13:43.855Z,16.10
2022-09-29T12:16:18.578Z,16.16
2022-09-29T12:18:53.783Z,16.28
2022-09-29T12:21:33.093Z,16.37
2022-09-29T12:24:08.411Z,16.45
2022-09-29T12:26:42.895Z,16.47
2022-09-29T12:29:27.646Z,16.41
2022-09-29T12:32:05.029Z,16.42
2022-09-29T12:34:46.032Z,16.39
2022-09-29T12:37:27.146Z,16.45
2022-09-29T12:40:07.609Z,16.33
2022-09-29T12:43:05.819Z,16.29
2022-09-29T12:45:48.614Z,16.38
2022-09-29T12:48:34.226Z,16.45
2022-09-29T12:51:10.912Z,16.73
2022-09-29T12:53:51.310Z,17.16
2022-09-29T12:56:27.121Z,17.51
2022-09-29T12:59:02.962Z,17.54
2022-09-29T13:01:36.593Z,17.49
2022-09-29T13:04:50.329Z,17.44
2022-09-29T13:08:01.792Z,17.43
2022-09-29T13:10:54.183Z,17.26
2022-09-29T13:13:51.486Z,17.14
2022-09-29T13:16:33.795Z,17.13
2022-09-29T13:19:56.088Z,17.02
2022-09-29T13:23:01.238Z,16.76
2022-09-29T13:25:41.874Z,16.33
2022-09-29T13:28:30.901Z,16.12
2022-09-29T13:31:06.017Z,16.00
2022-09-29T13:33:37.324Z,15.84
2022-09-29T13:36:06.561Z,15.70
2022-09-29T13:38:41.073Z,15.55
2022-09-29T13:41:17.981Z,15.38
2022-09-29T13:44:06.373Z,15.30
2022-09-29T13:46:43.138Z,15.21
2022-09-29T13:49:25.762Z,15.13
2022-09-29T13:51:57.179Z,15.08
2022-09-29T13:54:40.295Z,15.05
2022-09-29T13:57:30.055Z,14.95
2022-09-29T14:00:26.977Z,14.84
2022-09-29T14:03:28.889Z,14.75
2022-09-29T14:09:15.801Z,14.61
2022-09-29T14:11:51.891Z,14.63
2022-09-29T14:14:27.211Z,14.74
2022-09-29T14:17:06.373Z,14.86
2022-09-29T14:19:49.499Z,15.15
2022-09-29T14:23:06.242Z,15.39
2022-09-29T14:25:53.739Z,15.55
2022-09-29T14:28:37.810Z,15.66
2022-09-29T14:31:22.279Z,15.72
2022-09-29T14:33:54.361Z,15.68
2022-09-29T14:36:28.321Z,15.64
2022-09-29T14:39:35.336Z,15.59
2022-09-29T14:41:51.055Z,15.56
2022-09-29T14:44:26.138Z,15.51
2022-09-29T14:47:52.984Z,15.41
2022-09-29T14:51:00.152Z,15.20
2022-09-29T14:53:52.522Z,14.95
2022-09-29T14:56:37.576Z,14.77
2022-09-29T14:59:21.653Z,14.63
2022-09-29T15:02:18.920Z,14.51
2022-09-29T15:04:50.485Z,14.40
2022-09-29T15:07:22.912Z,14.31
2022-09-29T15:09:55.371Z,14.22
2022-09-29T15:12:28.401Z,14.14
2022-09-29T15:15:00.292Z,14.08
2022-09-29T15:17:43.541Z,14.02
2022-09-29T15:20:23.101Z,13.95
2022-09-29T15:23:26.077Z,13.90
2022-09-29T15:26:00.532Z,13.81
2022-09-29T15:28:39.590Z,13.76
2022-09-29T15:31:13.817Z,13.73
2022-09-29T15:33:47.611Z,13.69
2022-09-29T15:36:22.691Z,13.65
2022-09-29T15:39:00.179Z,13.61
2022-09-29T15:41:35.224Z,13.55
2022-09-29T15:44:18.375Z,13.49
2022-09-29T15:46:57.593Z,13.42
2022-09-29T15:49:29.043Z,13.36
2022-09-29T15:52:01.871Z,13.29
2022-09-29T15:54:38.896Z,13.20
2022-09-29T15:57:48.052Z,13.14
2022-09-29T16:00:48.436Z,13.06
2022-09-29T16:03:27.291Z,13.00
2022-09-29T16:06:05.416Z,12.96
2022-09-29T16:08:47.146Z,12.92
2022-09-29T16:11:25.951Z,12.87
2022-09-29T16:14:03.476Z,12.83
2022-09-29T16:16:41.305Z,12.80
2022-09-29T16:19:18.888Z,12.77
2022-09-29T16:21:54.630Z,12.73
2022-09-29T16:24:32.751Z,12.68
2022-09-29T16:27:03.633Z,12.63
2022-09-29T16:29:36.552Z,12.58
2022-09-29T16:32:43.027Z,12.52
2022-09-29T16:35:48.753Z,12.46
2022-09-29T16:38:34.844Z,12.38
2022-09-29T16:41:19.658Z,12.31
2022-09-29T16:43:51.007Z,12.23
2022-09-29T16:46:25.672Z,12.16
2022-09-29T16:49:00.083Z,12.08
2022-09-29T16:51:42.940Z,11.98
2022-09-29T16:54:30.386Z,11.91
2022-09-29T16:57:22.507Z,11.83
2022-09-29T16:59:54.598Z,11.75
2022-09-29T17:02:26.613Z,11.67
2022-09-29T17:05:01.525Z,11.60
2022-09-29T17:11:27.678Z,11.43
2022-09-29T17:13:58.347Z,11.38
2022-09-29T17:16:29.615Z,11.35
2022-09-29T17:19:01.766Z,11.30
2022-09-29T17:21:34.486Z,11.25
2022-09-29T17:24:07.294Z,11.19
2022-09-29T17:27:01.022Z,11.15
2022-09-29T17:29:31.619Z,11.08
2022-09-29T17:32:02.852Z,11.03
2022-09-29T17:34:33.435Z,10.97
2022-09-29T17:37:04.128Z,10.93
2022-09-29T17:39:34.718Z,10.86
2022-09-29T17:42:07.896Z,10.81
2022-09-29T17:44:40.774Z,10.77
2022-09-29T17:47:27.061Z,10.71
2022-09-29T17:50:00.825Z,10.66
2022-09-29T17:52:32.001Z,10.61
2022-09-29T17:55:02.379Z,10.56
2022-09-29T17:57:33.113Z,10.52
2022-09-29T18:00:03.928Z,10.47
2022-09-29T18:02:40.229Z,10.42
2022-09-29T18:05:12.059Z,10.38
2022-09-29T18:07:43.004Z,10.35
2022-09-29T18:10:27.512Z,10.31
2022-09-29T18:12:59.041Z,10.26
2022-09-29T18:15:30.117Z,10.20
2022-09-29T18:18:02.804Z,10.17
2022-09-29T18:20:38.521Z,10.12
2022-09-29T18:23:09.168Z,10.09
2022-09-29T18:25:42.057Z,10.05
2022-09-29T18:28:15.900Z,10.00
2022-09-29T18:30:48.870Z,9.96
2022-09-29T18:33:20.923Z,9.92
2022-09-29T18:35:55.580Z,9.89
2022-09-29T18:38:26.185Z,9.87
2022-09-29T18:40:57.527Z,9.84
2022-09-29T18:43:27.443Z,9.80
2022-09-29T18:45:58.870Z,9.77
2022-09-29T18:48:27.864Z,9.74
2022-09-29T18:50:58.461Z,9.71
2022-09-29T18:53:29.143Z,9.67
2022-09-29T18:56:03.228Z,9.63
2022-09-29T18:58:33.666Z,9.60
2022-09-29T19:01:04.137Z,9.58
2022-09-29T19:03:34.547Z,9.55
2022-09-29T19:06:05.858Z,9.53
2022-09-29T19:08:35.226Z,9.50
2022-09-29T19:11:06.245Z,9.47
2022-09-29T19:13:38.824Z,9.44
2022-09-29T19:16:09.447Z,9.40
2022-09-29T19:18:40.007Z,9.38
2022-09-29T19:21:14.181Z,9.36
2022-09-29T19:23:46.812Z,9.34
2022-09-29T19:26:22.326Z,9.32
2022-09-29T19:28:53.131Z,9.30
2022-09-29T19:31:24.440Z,9.28
2022-09-29T19:33:53.412Z,9.25
2022-09-29T19:36:24.135Z,9.22
2022-09-29T19:38:54.724Z,9.20
2022-09-29T19:41:26.608Z,9.16
2022-09-29T19:43:56.988Z,9.14
2022-09-29T19:46:27.387Z,9.13
2022-09-29T19:48:57.898Z,9.11
2022-09-29T19:51:47.633Z,9.09
2022-09-29T19:54:20.314Z,9.07
2022-09-29T19:56:54.017Z,9.03
2022-09-29T19:59:29.076Z,9.01
2022-09-29T20:02:00.239Z,8.99
2022-09-29T20:04:33.390Z,8.97
2022-09-29T20:07:04.724Z,8.95
2022-09-29T20:09:36.009Z,8.93
2022-09-29T20:12:05.122Z,8.91
2022-09-29T20:14:37.989Z,8.88
2022-09-29T20:17:08.407Z,8.86
2022-09-29T20:19:38.840Z,8.83
2022-09-29T20:22:09.377Z,8.79
2022-09-29T20:24:39.845Z,8.77
2022-09-29T20:27:10.973Z,8.74
2022-09-29T20:29:41.902Z,8.72
2022-09-29T20:32:12.551Z,8.70
2022-09-29T20:34:43.445Z,8.69
2022-09-29T20:37:14.832Z,8.67
2022-09-29T20:39:44.087Z,8.64
2022-09-29T20:42:14.464Z,8.62
2022-09-29T20:44:44.972Z,8.60
2022-09-29T20:47:16.031Z,8.58
2022-09-29T20:49:47.287Z,8.56
2022-09-29T20:52:17.953Z,8.54
2022-09-29T20:54:48.652Z,8.51
2022-09-29T20:57:19.386Z,8.49
2022-09-29T20:59:49.898Z,8.48
2022-09-29T21:02:20.291Z,8.46
2022-09-29T21:04:50.782Z,8.44
2022-09-29T21:07:41.342Z,8.42
2022-09-29T21:10:13.241Z,8.41
2022-09-29T21:12:45.876Z,8.40
2022-09-29T21:15:16.581Z,8.40
2022-09-29T21:17:47.037Z,8.39
2022-09-29T21:20:18.659Z,8.38
2022-09-29T21:22:50.453Z,8.37
2022-09-29T21:25:21.010Z,8.34
2022-09-29T21:27:52.440Z,8.33
2022-09-29T21:30:23.270Z,8.32
2022-09-29T21:32:53.660Z,8.31
2022-09-29T21:35:24.101Z,8.28
2022-09-29T21:37:54.563Z,8.26
2022-09-29T21:40:25.819Z,8.24
2022-09-29T21:42:56.290Z,8.21
2022-09-29T21:45:26.723Z,8.19
2022-09-29T21:48:09.319Z,8.15
2022-09-29T21:50:39.684Z,8.13
2022-09-29T21:53:10.962Z,8.11
2022-09-29T21:55:44.805Z,8.08
2022-09-29T21:58:15.243Z,8.07
2022-09-29T22:00:45.615Z,8.06
2022-09-29T22:03:16.693Z,8.06
2022-09-29T22:05:47.185Z,8.06
2022-09-29T22:08:17.772Z,8.06
2022-09-29T22:10:50.857Z,8.05
2022-09-29T22:13:24.870Z,8.05
2022-09-29T22:16:04.270Z,8.05
2022-09-29T22:18:43.350Z,8.05
2022-09-29T22:21:15.505Z,8.06
2022-09-29T22:23:46.538Z,8.06
2022-09-29T22:26:18.378Z,8.06
2022-09-29T22:28:48.740Z,8.06
2022-09-29T22:31:19.201Z,8.06
2022-09-29T22:33:54.198Z,8.06
2022-09-29T22:36:24.698Z,8.07
2022-09-29T22:38:55.835Z,8.08
2022-09-29T22:41:26.640Z,8.10
2022-09-29T22:43:59.401Z,8.11
2022-09-29T22:46:31.216Z,8.14
2022-09-29T22:49:01.786Z,8.15
2022-09-29T22:51:32.737Z,8.16
2022-09-29T22:54:03.296Z,8.18
2022-09-29T22:56:33.807Z,8.18
2022-09-29T22:59:05.871Z,8.17
2022-09-29T23:01:36.335Z,8.18
2022-09-29T23:04:06.834Z,8.19
2022-09-29T23:06:37.309Z,8.19
2022-09-29T23:09:07.766Z,8.20
2022-09-29T23:11:39.070Z,8.19
2022-09-29T23:14:09.437Z,8.18
2022-09-29T23:16:39.869Z,8.18
2022-09-29T23:19:11.977Z,8.18
2022-09-29T23:21:42.422Z,8.17
2022-09-29T23:24:12.890Z,8.15
2022-09-29T23:26:46.206Z,8.14
2022-09-29T23:29:17.484Z,8.14
2022-09-29T23:31:49.754Z,8.13
2022-09-29T23:34:23.576Z,8.12
2022-09-29T23:36:54.280Z,8.11
2022-09-29T23:39:25.170Z,8.10
2022-09-29T23:41:55.994Z,8.08
2022-09-29T23:44:28.929Z,8.06
2022-09-29T23:46:59.650Z,8.05
2022-09-29T23:49:30.784Z,8.04
2022-09-29T23:52:04.269Z,8.04
2022-09-29T23:54:34.667Z,8.04
2022-09-29T23:57:05.160Z,8.05
2022-09-29T23:59:35.716Z,8.06
